Time;durP1;ratioP1;P1;durP2;ratioP2;P2;SDS_P1;SDS_P2;PMS_P1;PMS_P2;Temp;Humidity;BMP_temperature;BMP_pressure;BME280_temperature;BME280_humidity;BME280_pressure;Samples;Min_cycle;Max_cycle;Signal;HPM_P1;HPM_P2
2024/01/17 00:00:49;;;;;;;7.10;2.92;;;0.80;99.90;;;;;;6242749;22;19927;-80
2024/01/17 00:03:14;;;;;;;6.15;3.20;;;0.80;99.90;;;;;;6265585;22;20012;-80
2024/01/17 00:05:40;;;;;;;8.50;3.03;;;0.80;99.90;;;;;;6238851;22;20098;-80
2024/01/17 00:08:06;;;;;;;7.47;2.97;;;0.70;99.90;;;;;;6241870;22;20024;-80
2024/01/17 00:10:31;;;;;;;7.43;3.35;;;0.70;99.90;;;;;;6243758;22;20030;-80
2024/01/17 00:12:57;;;;;;;8.07;2.57;;;0.80;99.90;;;;;;6268971;22;20046;-80
2024/01/17 00:15:23;;;;;;;7.68;3.13;;;0.80;99.90;;;;;;6268612;22;20340;-80
2024/01/17 00:17:48;;;;;;;5.47;2.55;;;0.70;99.90;;;;;;6242880;22;20023;-79
2024/01/17 00:20:14;;;;;;;5.55;2.63;;;0.80;99.90;;;;;;6243873;22;20008;-80
2024/01/17 00:22:40;;;;;;;6.13;2.88;;;0.80;99.90;;;;;;6243695;22;20022;-80
2024/01/17 00:25:08;;;;;;;7.18;2.65;;;0.80;99.90;;;;;;6243198;22;20011;-80
2024/01/17 00:27:35;;;;;;;8.48;3.35;;;0.80;99.90;;;;;;6267563;22;20012;-80
2024/01/17 00:30:02;;;;;;;5.50;2.72;;;0.70;99.90;;;;;;6268622;22;20073;-80
2024/01/17 00:32:27;;;;;;;4.82;2.83;;;0.70;99.90;;;;;;6267931;22;20090;-80
2024/01/17 00:34:53;;;;;;;4.65;2.50;;;0.70;99.90;;;;;;6268382;22;20047;-80
2024/01/17 00:37:19;;;;;;;7.90;2.90;;;0.60;99.90;;;;;;6269173;22;20045;-80
2024/01/17 00:39:44;;;;;;;9.20;3.47;;;0.60;99.90;;;;;;6268935;22;20008;-80
2024/01/17 00:42:10;;;;;;;10.63;3.60;;;0.60;99.90;;;;;;6242654;22;20757;-80
2024/01/17 00:44:39;;;;;;;5.07;3.30;;;0.50;99.90;;;;;;6242334;22;20312;-80
2024/01/17 00:47:05;;;;;;;7.50;3.50;;;0.60;99.90;;;;;;6268009;22;20082;-81
2024/01/17 00:49:31;;;;;;;6.55;3.60;;;0.60;99.90;;;;;;6268676;22;20078;-80
2024/01/17 00:51:57;;;;;;;7.13;3.45;;;0.60;99.90;;;;;;6268596;22;20456;-80
2024/01/17 00:54:22;;;;;;;7.22;3.67;;;0.60;99.90;;;;;;6268549;22;20019;-80
2024/01/17 00:56:48;;;;;;;7.35;4.05;;;0.60;99.90;;;;;;6242392;22;20597;-80
2024/01/17 00:59:14;;;;;;;7.82;3.85;;;0.60;99.90;;;;;;6242768;22;20501;-80
2024/01/17 01:01:40;;;;;;;10.23;3.63;;;0.60;99.90;;;;;;6242709;22;20050;-80
2024/01/17 01:04:08;;;;;;;7.22;3.80;;;0.70;99.90;;;;;;6241922;22;20258;-80
2024/01/17 01:06:33;;;;;;;7.47;3.70;;;0.70;99.90;;;;;;6242820;22;20435;-80
2024/01/17 01:08:59;;;;;;;9.65;3.70;;;0.70;99.90;;;;;;6267571;22;20024;-80
2024/01/17 01:11:32;;;;;;;8.25;3.65;;;0.70;99.90;;;;;;6242718;22;20429;-80
2024/01/17 01:14:01;;;;;;;11.52;5.60;;;0.70;99.90;;;;;;6266997;22;20691;-82
2024/01/17 01:16:27;;;;;;;8.23;4.22;;;0.70;99.90;;;;;;6267656;22;20460;-80
2024/01/17 01:18:53;;;;;;;10.10;4.50;;;0.70;99.90;;;;;;6267958;22;20018;-80
2024/01/17 01:21:19;;;;;;;7.78;4.10;;;0.80;99.90;;;;;;6267518;22;20091;-80
2024/01/17 01:23:46;;;;;;;6.70;3.45;;;0.80;99.90;;;;;;6267978;22;20098;-80
2024/01/17 01:26:11;;;;;;;8.07;4.38;;;0.80;99.90;;;;;;6268024;22;20020;-80
2024/01/17 01:28:37;;;;;;;8.55;4.20;;;0.80;99.90;;;;;;6242101;22;20010;-80
2024/01/17 01:31:03;;;;;;;7.40;3.80;;;0.80;99.90;;;;;;6268788;22;20015;-80
2024/01/17 01:33:28;;;;;;;7.55;4.20;;;0.80;99.90;;;;;;6268544;22;20270;-80
2024/01/17 01:35:54;;;;;;;10.40;4.33;;;0.70;99.90;;;;;;6243137;22;20011;-80
2024/01/17 01:38:20;;;;;;;6.93;3.90;;;0.70;99.90;;;;;;6268659;22;20698;-80
2024/01/17 01:40:45;;;;;;;8.13;4.83;;;0.70;99.90;;;;;;6268000;22;20272;-80
2024/01/17 01:43:22;;;;;;;9.05;4.47;;;0.70;99.90;;;;;;6240996;22;20020;-80
2024/01/17 01:46:15;;;;;;;8.90;4.90;;;0.70;99.90;;;;;;6267362;22;20012;-80
2024/01/17 01:48:42;;;;;;;12.48;5.57;;;0.70;99.90;;;;;;6234804;22;20016;-80
2024/01/17 01:51:11;;;;;;;9.77;5.30;;;0.70;99.90;;;;;;6243082;22;20019;-80
2024/01/17 01:53:39;;;;;;;11.57;5.70;;;0.70;99.90;;;;;;6241858;22;20008;-81
2024/01/17 01:56:06;;;;;;;14.65;6.10;;;0.70;99.90;;;;;;6242074;22;20015;-81
2024/01/17 01:58:34;;;;;;;10.43;5.57;;;0.60;99.90;;;;;;6240340;22;20018;-83
2024/01/17 02:01:02;;;;;;;10.32;5.57;;;0.60;99.90;;;;;;6239077;22;20015;-82
2024/01/17 02:03:29;;;;;;;11.25;6.00;;;0.60;99.90;;;;;;6239670;22;20027;-82
2024/01/17 02:05:55;;;;;;;10.70;6.00;;;0.60;99.90;;;;;;6267888;22;20011;-82
2024/01/17 02:08:21;;;;;;;15.60;6.43;;;0.60;99.90;;;;;;6242132;22;20103;-80
2024/01/17 02:10:47;;;;;;;10.80;6.30;;;0.60;99.90;;;;;;6266477;22;20070;-79
2024/01/17 02:13:13;;;;;;;10.38;5.75;;;0.60;99.90;;;;;;6267445;22;20456;-80
2024/01/17 02:15:39;;;;;;;8.73;5.80;;;0.60;99.90;;;;;;6243027;22;20038;-80
2024/01/17 02:18:05;;;;;;;9.05;5.97;;;0.60;99.90;;;;;;6267426;22;20514;-80
2024/01/17 02:20:31;;;;;;;10.95;6.03;;;0.60;99.90;;;;;;6266907;22;20103;-80
2024/01/17 02:22:57;;;;;;;10.73;6.90;;;0.50;99.90;;;;;;6267732;22;20047;-80
2024/01/17 02:25:22;;;;;;;7.93;6.28;;;0.60;99.90;;;;;;6241711;22;20014;-80
2024/01/17 02:27:48;;;;;;;9.10;6.37;;;0.50;99.90;;;;;;6267331;22;20012;-80
2024/01/17 02:30:14;;;;;;;11.10;6.10;;;0.60;99.90;;;;;;6267835;22;20300;-80
2024/01/17 02:32:42;;;;;;;9.82;5.95;;;0.50;99.90;;;;;;6267869;22;20023;-80
2024/01/17 02:35:08;;;;;;;10.85;6.72;;;0.50;99.90;;;;;;6267213;22;20058;-80
2024/01/17 02:37:34;;;;;;;11.57;6.53;;;0.50;99.90;;;;;;6242253;22;20023;-80
2024/01/17 02:39:59;;;;;;;12.67;6.80;;;0.60;99.90;;;;;;6241934;22;20012;-80
2024/01/17 02:42:25;;;;;;;9.60;6.47;;;0.50;99.90;;;;;;6242335;22;20270;-79
2024/01/17 02:44:51;;;;;;;9.57;6.32;;;0.50;99.90;;;;;;6268233;22;20018;-79
2024/01/17 02:47:16;;;;;;;10.97;6.33;;;0.50;99.90;;;;;;6267714;22;20023;-79
2024/01/17 02:49:42;;;;;;;11.23;6.80;;;0.50;99.90;;;;;;6267862;22;20023;-79
2024/01/17 02:52:07;;;;;;;11.90;6.53;;;0.50;99.90;;;;;;6241884;22;20231;-80
2024/01/17 02:54:33;;;;;;;12.60;6.53;;;0.50;99.90;;;;;;6242024;22;20242;-79
2024/01/17 02:56:59;;;;;;;13.18;6.93;;;0.50;99.90;;;;;;6269331;22;20057;-79
2024/01/17 02:59:24;;;;;;;12.30;6.67;;;0.50;99.90;;;;;;6270457;22;20586;-80
2024/01/17 03:01:50;;;;;;;12.05;7.25;;;0.50;99.90;;;;;;6268476;22;20604;-82
2024/01/17 03:04:16;;;;;;;10.80;6.78;;;0.40;99.90;;;;;;6242073;22;20019;-82
2024/01/17 03:06:43;;;;;;;12.70;6.78;;;0.40;99.90;;;;;;6242613;22;20022;-79
2024/01/17 03:09:10;;;;;;;13.77;6.75;;;0.50;99.90;;;;;;6242885;22;20015;-79
2024/01/17 03:11:36;;;;;;;13.82;6.90;;;0.40;99.90;;;;;;6243804;22;20054;-79
2024/01/17 03:14:03;;;;;;;10.35;6.43;;;0.40;99.90;;;;;;6242846;22;20020;-79
2024/01/17 03:16:28;;;;;;;11.20;7.18;;;0.40;99.90;;;;;;6269028;22;20448;-79
2024/01/17 03:18:54;;;;;;;14.33;7.70;;;0.40;99.90;;;;;;6269648;22;20016;-80
2024/01/17 03:21:19;;;;;;;15.07;6.90;;;0.30;99.90;;;;;;6243892;22;20241;-80
2024/01/17 03:23:45;;;;;;;12.65;6.72;;;0.30;99.90;;;;;;6268238;22;20011;-79
2024/01/17 03:26:11;;;;;;;13.48;7.43;;;0.30;99.90;;;;;;6244204;22;20601;-79
2024/01/17 03:28:36;;;;;;;11.30;7.18;;;0.30;99.90;;;;;;6269220;22;20095;-79
2024/01/17 03:31:02;;;;;;;13.00;6.78;;;0.30;99.90;;;;;;6244191;22;20008;-79
2024/01/17 03:33:28;;;;;;;15.13;7.82;;;0.30;99.90;;;;;;6243929;22;20018;-79
2024/01/17 03:35:53;;;;;;;13.13;7.43;;;0.30;99.90;;;;;;6269084;22;20093;-80
2024/01/17 03:38:21;;;;;;;12.75;7.80;;;0.30;99.90;;;;;;6268725;22;20020;-82
2024/01/17 03:40:47;;;;;;;13.07;7.93;;;0.30;99.90;;;;;;6269775;22;20011;-82
2024/01/17 03:43:12;;;;;;;15.70;8.48;;;0.40;99.90;;;;;;6268905;22;20069;-82
2024/01/17 03:45:38;;;;;;;11.20;7.50;;;0.40;99.90;;;;;;6269417;22;20047;-82
2024/01/17 03:48:06;;;;;;;13.88;7.80;;;0.30;99.90;;;;;;6269044;22;20478;-79
2024/01/17 03:50:32;;;;;;;12.77;8.07;;;0.30;99.90;;;;;;6242921;22;20012;-79
2024/01/17 03:52:59;;;;;;;14.52;8.32;;;0.30;99.90;;;;;;6241893;22;20004;-79
2024/01/17 03:55:24;;;;;;;13.75;8.48;;;0.30;99.90;;;;;;6244356;22;20058;-79
2024/01/17 03:57:50;;;;;;;9.35;6.07;;;0.30;99.90;;;;;;6268810;22;20016;-79
2024/01/17 04:00:16;;;;;;;14.70;8.47;;;0.30;99.90;;;;;;6269671;22;20478;-79
2024/01/17 04:02:41;;;;;;;15.15;8.65;;;0.30;99.90;;;;;;6248632;22;20027;-79
2024/01/17 04:05:07;;;;;;;17.48;8.93;;;0.20;99.90;;;;;;6248679;22;20344;-79
2024/01/17 04:07:33;;;;;;;15.77;8.43;;;0.20;99.90;;;;;;6273733;22;20511;-79
2024/01/17 04:09:58;;;;;;;17.27;8.68;;;0.20;99.90;;;;;;6248110;22;20018;-79
2024/01/17 04:12:24;;;;;;;15.27;8.15;;;0.10;99.90;;;;;;6272866;22;20007;-80
2024/01/17 04:14:49;;;;;;;10.23;6.88;;;0.10;99.90;;;;;;6274550;22;20443;-80
2024/01/17 04:17:15;;;;;;;14.03;8.60;;;0.10;99.90;;;;;;6248716;22;20066;-79
2024/01/17 04:19:41;;;;;;;18.90;8.77;;;0.10;99.90;;;;;;6273978;22;20435;-79
2024/01/17 04:22:07;;;;;;;13.00;8.52;;;0.00;99.90;;;;;;6273532;22;20090;-82
2024/01/17 04:24:33;;;;;;;13.77;8.10;;;0.00;99.90;;;;;;6273814;22;20023;-82
2024/01/17 04:26:58;;;;;;;14.02;9.18;;;0.00;99.90;;;;;;6247359;22;20309;-82
2024/01/17 04:29:24;;;;;;;16.73;9.23;;;0.00;99.90;;;;;;6248218;22;20003;-82
2024/01/17 04:31:50;;;;;;;14.80;8.65;;;0.10;99.90;;;;;;6248597;22;20505;-81
2024/01/17 04:34:15;;;;;;;15.20;9.18;;;0.10;99.90;;;;;;6248640;22;20015;-82
2024/01/17 04:36:41;;;;;;;14.70;8.25;;;0.10;99.90;;;;;;6273586;22;20466;-79
2024/01/17 04:39:08;;;;;;;16.55;9.10;;;0.10;99.90;;;;;;6273381;22;20007;-79
2024/01/17 04:41:34;;;;;;;14.50;9.23;;;0.10;99.90;;;;;;6248660;22;20090;-79
2024/01/17 04:44:00;;;;;;;14.15;8.20;;;0.10;99.90;;;;;;6271762;22;20015;-79
2024/01/17 04:46:26;;;;;;;15.88;8.65;;;0.00;99.90;;;;;;6274357;22;20008;-79
2024/01/17 04:48:52;;;;;;;15.75;8.85;;;0.00;99.90;;;;;;6272925;22;20096;-81
2024/01/17 04:51:21;;;;;;;15.00;9.03;;;0.00;99.90;;;;;;6272849;22;20015;-81
2024/01/17 04:53:48;;;;;;;12.20;8.10;;;0.00;99.90;;;;;;6246885;22;20246;-79
2024/01/17 04:56:15;;;;;;;13.98;8.57;;;0.00;99.90;;;;;;6247875;22;20019;-79
2024/01/17 04:58:43;;;;;;;16.45;9.93;;;0.00;99.90;;;;;;6266248;22;20011;-80
2024/01/17 05:01:09;;;;;;;16.77;9.98;;;-0.10;99.90;;;;;;6269113;22;20011;-80
2024/01/17 05:03:36;;;;;;;14.18;9.55;;;-0.10;99.90;;;;;;6241694;22;20015;-80
2024/01/17 05:06:02;;;;;;;16.38;9.35;;;-0.20;99.90;;;;;;6266885;22;20111;-80
2024/01/17 05:08:28;;;;;;;21.42;10.32;;;-0.20;99.90;;;;;;6242297;22;20039;-80
2024/01/17 05:10:57;;;;;;;15.15;9.45;;;-0.20;99.90;;;;;;6267347;22;20007;-80
2024/01/17 05:13:22;;;;;;;18.73;10.07;;;-0.20;99.90;;;;;;6241905;22;20012;-80
2024/01/17 05:15:48;;;;;;;14.68;9.55;;;-0.30;99.90;;;;;;6268333;22;20023;-80
2024/01/17 05:18:14;;;;;;;16.50;10.13;;;-0.30;99.90;;;;;;6268619;22;20444;-80
2024/01/17 05:20:39;;;;;;;16.43;9.70;;;-0.20;99.90;;;;;;6240866;22;20047;-81
2024/01/17 05:23:05;;;;;;;15.63;9.70;;;-0.20;99.90;;;;;;6241453;22;20265;-81
2024/01/17 05:25:32;;;;;;;;;;;-0.20;99.90;;;;;;6267381;22;20399;-81
2024/01/17 05:27:58;;;;;;;14.82;9.02;;;-0.30;99.90;;;;;;6240193;22;19957;-79
2024/01/17 05:30:24;;;;;;;15.48;9.40;;;-0.30;99.90;;;;;;6268207;22;20004;-80
2024/01/17 05:32:51;;;;;;;17.33;9.68;;;-0.30;99.90;;;;;;6242465;22;20012;-79
2024/01/17 05:35:16;;;;;;;17.65;9.98;;;-0.30;99.90;;;;;;6267443;22;20026;-79
2024/01/17 05:37:43;;;;;;;19.50;10.45;;;-0.30;99.90;;;;;;6268473;22;20015;-79
2024/01/17 05:40:15;;;;;;;15.00;9.38;;;-0.30;99.90;;;;;;6268544;22;20352;-79
2024/01/17 05:42:43;;;;;;;15.68;9.60;;;-0.30;99.90;;;;;;6239337;22;20046;-79
2024/01/17 05:45:09;;;;;;;14.52;9.95;;;-0.30;99.90;;;;;;6262621;22;20359;-80
2024/01/17 05:47:35;;;;;;;14.10;7.97;;;-0.40;99.90;;;;;;6264727;22;20008;-80
2024/01/17 05:50:03;;;;;;;17.58;10.20;;;-0.40;99.90;;;;;;6242270;22;20556;-80
2024/01/17 05:52:29;;;;;;;16.70;10.13;;;-0.40;99.90;;;;;;6242049;22;20018;-81
2024/01/17 05:54:55;;;;;;;17.73;9.70;;;-0.40;99.90;;;;;;6242172;22;20011;-80
2024/01/17 05:57:21;;;;;;;15.07;9.32;;;-0.40;99.90;;;;;;6241227;22;20041;-80
2024/01/17 05:59:46;;;;;;;15.63;9.43;;;-0.40;99.90;;;;;;6241760;22;20016;-80
2024/01/17 06:02:12;;;;;;;16.13;10.07;;;-0.50;99.90;;;;;;6242535;22;20026;-80
2024/01/17 06:04:37;;;;;;;17.15;10.38;;;-0.50;99.90;;;;;;6240600;22;20489;-78
2024/01/17 06:07:03;;;;;;;11.50;7.07;;;-0.50;99.90;;;;;;6241034;22;20383;-82
2024/01/17 06:09:29;;;;;;;15.75;9.63;;;-0.60;99.90;;;;;;6268157;22;20047;-80
2024/01/17 06:11:55;;;;;;;16.60;9.45;;;-0.60;99.90;;;;;;6241950;22;20040;-80
2024/01/17 06:14:20;;;;;;;19.55;10.35;;;-0.60;99.90;;;;;;6239962;22;20197;-81
2024/01/17 06:16:47;;;;;;;15.17;9.23;;;-0.60;99.90;;;;;;6262696;22;20047;-79
2024/01/17 06:19:14;;;;;;;15.82;9.55;;;-0.60;99.90;;;;;;6261310;22;20249;-85
2024/01/17 06:21:40;;;;;;;16.35;9.70;;;-0.60;99.90;;;;;;6264651;22;20396;-79
2024/01/17 06:24:06;;;;;;;17.85;10.30;;;-0.70;99.90;;;;;;6266594;22;20031;-80
2024/01/17 06:26:31;;;;;;;16.35;9.65;;;-0.70;99.90;;;;;;6240024;22;20007;-79
2024/01/17 06:28:57;;;;;;;15.30;9.57;;;-0.70;99.90;;;;;;6268871;22;20046;-80
2024/01/17 06:31:25;;;;;;;12.57;8.88;;;-0.70;99.90;;;;;;6269393;22;20031;-80
2024/01/17 06:33:54;;;;;;;16.92;9.23;;;-0.70;99.90;;;;;;6244480;22;20014;-81
2024/01/17 06:36:20;;;;;;;17.08;10.20;;;-0.70;99.90;;;;;;6268831;22;20348;-80
2024/01/17 06:38:46;;;;;;;14.93;9.82;;;-0.70;99.90;;;;;;6269654;22;20047;-80
2024/01/17 06:41:12;;;;;;;17.30;9.52;;;-0.70;99.90;;;;;;6269981;22;20008;-80
2024/01/17 06:43:38;;;;;;;15.88;9.45;;;-0.70;99.90;;;;;;6268978;22;20019;-80
2024/01/17 06:46:04;;;;;;;12.97;8.93;;;-0.70;99.90;;;;;;6268840;22;20081;-80
2024/01/17 06:48:30;;;;;;;14.30;9.43;;;-0.70;99.90;;;;;;6269782;22;20322;-80
2024/01/17 06:50:56;;;;;;;16.98;9.10;;;-0.70;99.90;;;;;;6269764;22;20419;-80
2024/01/17 06:53:22;;;;;;;14.52;9.57;;;-0.70;99.90;;;;;;6243902;22;20012;-80
2024/01/17 06:55:48;;;;;;;16.13;8.82;;;-0.70;99.90;;;;;;6269664;22;20015;-80
2024/01/17 06:58:14;;;;;;;14.98;8.80;;;-0.70;99.90;;;;;;6269164;22;20019;-79
2024/01/17 07:00:40;;;;;;;15.65;8.70;;;-0.60;99.90;;;;;;6269440;22;20023;-80
2024/01/17 07:03:06;;;;;;;16.33;9.02;;;-0.70;99.90;;;;;;6270389;22;20053;-80
2024/01/17 07:05:32;;;;;;;14.20;8.82;;;-0.70;99.90;;;;;;6269845;22;20012;-81
2024/01/17 07:07:57;;;;;;;10.98;6.90;;;-0.70;99.90;;;;;;6269813;22;20090;-80
2024/01/17 07:10:23;;;;;;;16.73;9.07;;;-0.70;99.90;;;;;;6269717;22;20091;-80
2024/01/17 07:12:50;;;;;;;15.68;8.32;;;-0.70;99.90;;;;;;6268521;22;20619;-80
2024/01/17 07:15:17;;;;;;;14.63;8.57;;;-0.70;99.90;;;;;;6268627;22;20015;-80
2024/01/17 07:17:42;;;;;;;15.63;8.98;;;-0.80;99.90;;;;;;6268039;22;20015;-81
2024/01/17 07:20:10;;;;;;;13.65;8.88;;;-0.70;99.90;;;;;;6267059;22;20446;-81
2024/01/17 07:22:41;;;;;;;20.33;9.05;;;-0.70;99.90;;;;;;6265799;22;20475;-79
2024/01/17 07:25:08;;;;;;;17.08;8.75;;;-0.70;99.90;;;;;;6242210;22;20091;-80
2024/01/17 07:27:34;;;;;;;15.27;8.77;;;-0.80;99.90;;;;;;6267574;22;20011;-79
2024/01/17 07:29:59;;;;;;;13.70;9.37;;;-0.80;99.90;;;;;;6242796;22;20012;-80
2024/01/17 07:32:25;;;;;;;14.97;8.83;;;-0.90;99.90;;;;;;6242905;22;20397;-80
2024/01/17 07:34:50;;;;;;;16.83;9.70;;;-0.90;99.90;;;;;;6269790;22;20238;-85
2024/01/17 07:37:16;;;;;;;13.43;8.82;;;-0.90;99.90;;;;;;6269290;22;20012;-80
2024/01/17 07:39:43;;;;;;;15.27;9.47;;;-1.00;99.90;;;;;;6243658;22;20070;-80
2024/01/17 07:42:08;;;;;;;14.18;9.48;;;-1.00;99.90;;;;;;6267741;22;20245;-80
2024/01/17 07:44:34;;;;;;;14.07;9.15;;;-1.00;99.90;;;;;;6267473;22;20020;-79
2024/01/17 07:47:00;;;;;;;14.37;9.30;;;-1.00;99.90;;;;;;6267407;22;20083;-79
2024/01/17 07:49:25;;;;;;;12.88;9.55;;;-1.10;99.90;;;;;;6241914;22;20562;-79
2024/01/17 07:51:51;;;;;;;15.85;9.43;;;-1.10;99.90;;;;;;6239420;22;20014;-80
2024/01/17 07:54:18;;;;;;;16.10;9.73;;;-1.10;99.90;;;;;;6267157;22;20061;-80
2024/01/17 07:56:43;;;;;;;15.70;9.38;;;-1.10;99.90;;;;;;6268530;22;20421;-80
2024/01/17 07:59:09;;;;;;;14.75;9.55;;;-1.20;99.90;;;;;;6261948;22;20016;-80
2024/01/17 08:01:35;;;;;;;16.80;9.90;;;-1.20;99.90;;;;;;6242376;22;20043;-80
2024/01/17 08:04:00;;;;;;;14.02;9.32;;;-1.10;99.90;;;;;;6240877;22;20023;-80
2024/01/17 08:06:26;;;;;;;17.85;9.95;;;-1.20;99.90;;;;;;6241364;22;20325;-80
2024/01/17 08:08:52;;;;;;;16.73;10.67;;;-1.20;99.90;;;;;;6242476;22;20022;-81
2024/01/17 08:11:18;;;;;;;;;;;-1.30;99.90;;;;;;6268502;22;20666;-79
2024/01/17 08:13:44;;;;;;;15.82;9.88;;;-1.20;99.90;;;;;;6242023;22;19919;-79
2024/01/17 08:16:10;;;;;;;15.57;9.93;;;-1.20;99.90;;;;;;6269458;22;20016;-80
2024/01/17 08:18:36;;;;;;;16.88;9.43;;;-1.30;99.90;;;;;;6242186;22;20015;-80
2024/01/17 08:21:02;;;;;;;17.30;9.98;;;-1.20;99.90;;;;;;6242752;22;20351;-80
2024/01/17 08:23:28;;;;;;;14.85;9.38;;;-1.30;99.90;;;;;;6267448;22;20016;-80
2024/01/17 08:25:53;;;;;;;14.48;9.90;;;-1.30;99.90;;;;;;6242505;22;20099;-80
2024/01/17 08:28:19;;;;;;;12.87;9.43;;;-1.20;99.90;;;;;;6267704;22;20360;-80
2024/01/17 08:30:45;;;;;;;16.47;9.77;;;-1.20;99.90;;;;;;6267667;22;20246;-80
2024/01/17 08:33:10;;;;;;;14.13;9.27;;;-1.20;99.90;;;;;;6267876;22;20012;-81
2024/01/17 08:35:36;;;;;;;19.33;9.80;;;-1.30;99.90;;;;;;6267706;22;20238;-81
2024/01/17 08:38:01;;;;;;;18.13;9.63;;;-1.30;99.90;;;;;;6267287;22;20015;-81
2024/01/17 08:40:28;;;;;;;15.50;9.88;;;-1.30;99.90;;;;;;6243230;22;20088;-82
2024/01/17 08:42:53;;;;;;;;;;;-1.20;99.90;;;;;;6267639;22;20019;-83
2024/01/17 08:45:19;;;;;;;15.07;9.38;;;-1.20;99.90;;;;;;6243564;22;19919;-83
2024/01/17 08:47:45;;;;;;;17.58;10.55;;;-1.20;99.90;;;;;;6243830;22;20090;-81
2024/01/17 08:50:14;;;;;;;16.88;9.10;;;-1.20;99.90;;;;;;6243235;22;20014;-82
2024/01/17 08:52:40;;;;;;;12.13;8.60;;;-1.10;99.90;;;;;;6268065;22;20011;-81
2024/01/17 08:55:08;;;;;;;14.77;8.95;;;-1.00;99.90;;;;;;6241824;22;20081;-82
2024/01/17 08:57:38;;;;;;;14.93;9.13;;;-1.00;99.90;;;;;;6266546;22;20015;-82
2024/01/17 09:00:07;;;;;;;13.50;8.45;;;-0.90;99.90;;;;;;6267965;22;20012;-82
2024/01/17 09:02:32;;;;;;;13.68;8.77;;;-0.90;99.90;;;;;;6267842;22;20019;-82
2024/01/17 09:04:58;;;;;;;12.90;8.13;;;-0.80;99.90;;;;;;6267462;22;20019;-82
2024/01/17 09:07:24;;;;;;;13.38;8.77;;;-0.80;99.90;;;;;;6267077;22;20336;-82
2024/01/17 09:09:50;;;;;;;13.33;8.43;;;-0.80;99.90;;;;;;6241843;22;20019;-82
2024/01/17 09:12:17;;;;;;;15.82;9.18;;;-0.70;99.90;;;;;;6267105;22;20281;-82
2024/01/17 09:14:45;;;;;;;13.27;8.30;;;-0.70;99.90;;;;;;6267881;22;20066;-82
2024/01/17 09:17:11;;;;;;;15.48;8.65;;;-0.60;99.90;;;;;;6242363;22;20016;-82
2024/01/17 09:19:37;;;;;;;13.23;8.30;;;-0.70;99.90;;;;;;6242734;22;20023;-82
2024/01/17 09:22:03;;;;;;;13.20;8.73;;;-0.60;99.90;;;;;;6267432;22;20016;-82
2024/01/17 09:24:28;;;;;;;15.32;8.80;;;-0.60;99.90;;;;;;6241793;22;20653;-82
2024/01/17 09:26:54;;;;;;;13.47;8.13;;;-0.60;99.90;;;;;;6240753;22;20022;-82
2024/01/17 09:29:20;;;;;;;13.00;8.03;;;-0.50;99.90;;;;;;6267775;22;20012;-82
2024/01/17 09:31:46;;;;;;;12.98;8.93;;;-0.60;99.90;;;;;;6267147;22;20307;-82
2024/01/17 09:34:11;;;;;;;12.23;7.97;;;-0.60;99.90;;;;;;6268327;22;20035;-82
2024/01/17 09:36:37;;;;;;;10.55;6.40;;;-0.60;99.90;;;;;;6241474;22;20019;-82
2024/01/17 09:39:03;;;;;;;15.30;8.20;;;-0.50;99.90;;;;;;6266629;22;20008;-82
2024/01/17 09:41:28;;;;;;;10.60;8.02;;;-0.60;99.90;;;;;;6241381;22;20046;-82
2024/01/17 09:43:56;;;;;;;13.85;8.13;;;-0.50;99.90;;;;;;6266972;22;20145;-82
2024/01/17 09:46:22;;;;;;;11.85;7.95;;;-0.50;99.90;;;;;;6264334;22;20090;-83
2024/01/17 09:48:48;;;;;;;;;;;-0.50;99.90;;;;;;6266889;22;20008;-83
2024/01/17 09:51:23;;;;;;;13.35;7.97;;;-0.50;99.90;;;;;;6242369;22;20495;-83
2024/01/17 09:53:50;;;;;;;14.48;8.52;;;-0.40;99.90;;;;;;6266836;22;20018;-82
2024/01/17 09:56:18;;;;;;;12.90;8.10;;;-0.50;99.90;;;;;;6266256;22;20054;-82
2024/01/17 09:58:47;;;;;;;13.27;8.27;;;-0.50;99.90;;;;;;6240719;22;20019;-83
2024/01/17 10:01:14;;;;;;;17.33;8.63;;;-0.50;99.90;;;;;;6266202;22;20039;-82
2024/01/17 10:03:44;;;;;;;14.90;8.32;;;-0.40;99.90;;;;;;6267243;22;20027;-83
2024/01/17 10:06:11;;;;;;;13.60;8.23;;;-0.40;99.90;;;;;;6240577;22;20023;-82
2024/01/17 10:08:38;;;;;;;15.25;8.45;;;-0.40;99.90;;;;;;6240066;22;20026;-82
2024/01/17 10:11:04;;;;;;;15.32;7.82;;;-0.30;99.90;;;;;;6240543;22;20031;-83
2024/01/17 10:13:30;;;;;;;13.07;7.63;;;-0.30;99.90;;;;;;6239939;22;20340;-82
2024/01/17 10:15:59;;;;;;;13.60;7.95;;;-0.30;99.90;;;;;;6240776;22;20022;-82
2024/01/17 10:18:25;;;;;;;11.27;7.35;;;-0.20;99.90;;;;;;6241219;22;20019;-82
2024/01/17 10:20:51;;;;;;;13.90;8.30;;;-0.20;99.90;;;;;;6240999;22;20030;-83
2024/01/17 10:23:16;;;;;;;13.57;8.00;;;-0.30;99.90;;;;;;6241094;22;20546;-82
2024/01/17 10:25:42;;;;;;;13.20;7.40;;;-0.20;99.90;;;;;;6267014;22;20322;-82
2024/01/17 10:28:08;;;;;;;12.93;7.45;;;-0.20;99.90;;;;;;6265987;22;20341;-81
2024/01/17 10:30:39;;;;;;;13.35;7.68;;;-0.20;99.90;;;;;;6242032;22;20061;-81
2024/01/17 10:33:06;;;;;;;13.23;8.00;;;-0.20;99.90;;;;;;6266632;22;20008;-81
2024/01/17 10:35:32;;;;;;;12.73;7.93;;;-0.20;99.90;;;;;;6268134;22;20051;-81
2024/01/17 10:37:57;;;;;;;9.82;6.10;;;-0.20;99.90;;;;;;6266481;22;20471;-81
2024/01/17 10:40:23;;;;;;;12.07;7.15;;;-0.20;99.90;;;;;;6266097;22;20312;-81
2024/01/17 10:43:13;;;;;;;14.85;8.45;;;-0.20;99.90;;;;;;6265724;22;20015;-81
2024/01/17 10:45:41;;;;;;;12.38;7.95;;;-0.10;99.90;;;;;;6241976;22;20011;-81
2024/01/17 10:48:07;;;;;;;11.85;7.00;;;-0.10;99.90;;;;;;6242061;22;20011;-81
2024/01/17 10:50:33;;;;;;;11.38;7.13;;;0.00;99.90;;;;;;6267703;22;20357;-81
2024/01/17 10:53:08;;;;;;;11.07;7.65;;;0.00;99.90;;;;;;6267284;22;20022;-81
2024/01/17 10:55:35;;;;;;;10.88;6.57;;;0.00;99.90;;;;;;6242476;22;20071;-81
2024/01/17 10:58:12;;;;;;;11.60;7.13;;;0.10;99.90;;;;;;6267007;22;20015;-81
2024/01/17 11:00:41;;;;;;;13.77;7.95;;;0.10;99.90;;;;;;6267403;22;20019;-81
2024/01/17 11:03:11;;;;;;;11.05;7.18;;;0.20;99.90;;;;;;6267096;22;20042;-81
2024/01/17 11:05:47;;;;;;;12.73;6.95;;;0.20;99.90;;;;;;6241554;22;20041;-81
2024/01/17 11:08:14;;;;;;;14.40;7.53;;;0.30;99.90;;;;;;6265627;22;20087;-81
2024/01/17 11:10:40;;;;;;;12.85;7.93;;;0.30;99.90;;;;;;6266573;22;20017;-81
2024/01/17 11:13:08;;;;;;;12.90;7.35;;;0.30;99.90;;;;;;6266074;22;20258;-81
2024/01/17 11:15:36;;;;;;;12.77;7.22;;;0.40;99.90;;;;;;6267206;22;20019;-81
2024/01/17 11:18:02;;;;;;;11.30;7.00;;;0.30;99.90;;;;;;6268533;22;20023;-81
2024/01/17 11:20:28;;;;;;;;;;;0.30;99.90;;;;;;6269143;22;20043;-81
2024/01/17 11:22:55;;;;;;;12.82;6.78;;;0.30;99.90;;;;;;6267870;22;19918;-81
2024/01/17 11:25:30;;;;;;;9.95;6.55;;;0.30;99.90;;;;;;6242739;22;20047;-81
2024/01/17 11:28:05;;;;;;;9.63;6.07;;;0.30;99.90;;;;;;6242221;22;20038;-81
2024/01/17 11:30:55;;;;;;;10.38;7.03;;;0.30;99.90;;;;;;6268523;22;20016;-82
2024/01/17 11:33:21;;;;;;;11.77;7.15;;;0.30;99.90;;;;;;6244023;22;20090;-81
2024/01/17 11:35:52;;;;;;;12.90;6.70;;;0.30;99.90;;;;;;6268481;22;20466;-81
2024/01/17 11:38:24;;;;;;;14.40;7.22;;;0.30;99.90;;;;;;6268523;22;20336;-81
2024/01/17 11:40:57;;;;;;;12.02;6.55;;;0.30;99.90;;;;;;6269298;22;20384;-81
2024/01/17 11:43:26;;;;;;;13.13;7.25;;;0.30;99.90;;;;;;6268108;22;20054;-82
2024/01/17 11:45:53;;;;;;;9.75;6.00;;;0.30;99.90;;;;;;6243170;22;20016;-81
2024/01/17 11:48:28;;;;;;;;;;;0.20;99.90;;;;;;6270138;22;20550;-81
2024/01/17 11:51:18;;;;;;;14.57;7.32;;;0.20;99.90;;;;;;6270180;22;20346;-82
2024/01/17 11:53:50;;;;;;;12.00;7.15;;;0.20;99.90;;;;;;6270437;22;20074;-81
2024/01/17 11:56:20;;;;;;;9.45;6.07;;;0.20;99.90;;;;;;6269965;22;20060;-80
2024/01/17 11:59:04;;;;;;;11.98;6.57;;;0.20;99.90;;;;;;6268632;22;20023;-80
2024/01/17 12:01:35;;;;;;;10.35;7.10;;;0.10;99.90;;;;;;6270340;22;20020;-81
2024/01/17 12:04:15;;;;;;;14.52;7.43;;;0.10;99.90;;;;;;6269664;22;20070;-81
2024/01/17 12:06:46;;;;;;;12.80;6.90;;;0.10;99.90;;;;;;6269000;22;20035;-81
2024/01/17 12:09:18;;;;;;;11.40;7.10;;;0.10;99.90;;;;;;6242683;22;20088;-81
2024/01/17 12:11:47;;;;;;;13.80;7.03;;;0.10;99.90;;;;;;6268984;22;20062;-81
2024/01/17 12:14:14;;;;;;;12.27;7.15;;;0.10;99.90;;;;;;6268007;22;20054;-80
2024/01/17 12:16:40;;;;;;;11.18;6.90;;;0.00;99.90;;;;;;6268948;22;20751;-80
2024/01/17 12:19:06;;;;;;;11.27;7.05;;;0.00;99.90;;;;;;6268216;22;20015;-80
2024/01/17 12:21:32;;;;;;;11.48;7.22;;;0.10;99.90;;;;;;6268214;22;20016;-80
2024/01/17 12:23:58;;;;;;;10.15;7.35;;;0.10;99.90;;;;;;6269587;22;20081;-80
2024/01/17 12:26:24;;;;;;;12.55;7.65;;;0.10;99.90;;;;;;6269807;22;20022;-79
2024/01/17 12:28:49;;;;;;;11.75;7.30;;;0.10;99.90;;;;;;6268546;22;20044;-79
2024/01/17 12:31:18;;;;;;;10.93;7.85;;;0.10;99.90;;;;;;6268073;22;20400;-79
2024/01/17 12:33:45;;;;;;;12.15;7.32;;;0.10;99.90;;;;;;6267601;22;20023;-79
2024/01/17 12:36:12;;;;;;;13.52;7.68;;;0.10;99.90;;;;;;6268033;22;20016;-79
2024/01/17 12:38:40;;;;;;;13.10;7.22;;;0.10;99.90;;;;;;6268570;22;20019;-80
2024/01/17 12:41:07;;;;;;;10.50;7.25;;;0.10;99.90;;;;;;6268657;22;20025;-81
2024/01/17 12:43:35;;;;;;;11.13;7.05;;;0.10;99.90;;;;;;6267900;22;20019;-82